Time;durP1;ratioP1;P1;durP2;ratioP2;P2;SDS_P1;SDS_P2;PMS_P1;PMS_P2;Temp;Humidity;BMP_temperature;BMP_pressure;BME280_temperature;BME280_humidity;BME280_pressure;Samples;Min_cycle;Max_cycle;Signal;HPM_P1;HPM_P2
2021/08/24 00:00:24;;;;;;;;;;;;;;;20.24;53.54;101639.81;1838612;77;20180;-71
2021/08/24 00:02:58;;;;;;;;;;;;;;;20.25;53.20;101645.72;1829671;77;20201;-72
2021/08/24 00:05:35;;;;;;;;;;;;;;;20.28;53.11;101644.28;1841609;77;20321;-70
2021/08/24 00:08:07;;;;;;;;;;;;;;;20.30;53.73;101642.84;1829206;77;20692;-71
2021/08/24 00:10:41;;;;;;;;;;;;;;;20.29;53.36;101631.88;1808944;77;20246;-71
2021/08/24 00:13:14;;;;;;;;;;;;;;;20.32;52.86;101635.50;1856399;77;20247;-71
2021/08/24 00:15:47;;;;;;;;;;;;;;;20.38;53.09;101628.64;1856357;77;20171;-70
2021/08/24 00:18:19;;;;;;;;;;;;;;;20.41;53.53;101637.94;1845587;77;20208;-71
2021/08/24 00:20:52;;;;;;;;;;;;;;;20.42;53.76;101631.14;1822909;79;20248;-70
2021/08/24 00:23:25;;;;;;;;;;;;;;;20.41;53.93;101628.88;1822915;78;20220;-71
2021/08/24 00:25:58;;;;;;;;;;;;;;;20.36;54.03;101627.53;1824676;77;20248;-73
2021/08/24 00:28:30;;;;;;;;;;;;;;;20.31;54.30;101639.47;1842170;77;20209;-71
2021/08/24 00:31:01;;;;;;;;;;;;;;;20.25;54.45;101634.44;1830060;77;20246;-78
2021/08/24 00:33:33;;;;;;;;;;;;;;;20.23;54.67;101630.27;1856356;77;20190;-73
2021/08/24 00:36:06;;;;;;;;;;;;;;;20.21;54.65;101624.92;1856268;77;20313;-75
2021/08/24 00:38:39;;;;;;;;;;;;;;;20.19;54.71;101627.18;1854759;77;20604;-77
2021/08/24 00:41:11;;;;;;;;;;;;;;;20.17;54.82;101628.66;1853303;77;20566;-73
2021/08/24 00:43:43;;;;;;;;;;;;;;;20.09;54.99;101622.24;1853377;77;20312;-76
2021/08/24 00:46:39;;;;;;;;;;;;;;;20.03;54.97;101616.36;1841833;77;20260;-76
2021/08/24 00:49:18;;;;;;;;;;;;;;;19.98;55.42;101610.78;1827651;75;20244;-73
2021/08/24 00:51:53;;;;;;;;;;;;;;;19.94;55.72;101613.95;1834738;77;20174;-72
2021/08/24 00:54:25;;;;;;;;;;;;;;;19.90;55.84;101609.48;1892187;75;20597;-71
2021/08/24 00:57:08;;;;;;;;;;;;;;;19.85;56.20;101608.68;1881680;76;20545;-72
2021/08/24 00:59:40;;;;;;;;;;;;;;;19.81;56.57;101614.67;1878596;76;20236;-70
2021/08/24 01:02:12;;;;;;;;;;;;;;;19.77;56.53;101614.43;1802584;79;20269;-70
2021/08/24 01:04:44;;;;;;;;;;;;;;;19.72;56.92;101617.86;1875839;76;20787;-73
2021/08/24 01:07:25;;;;;;;;;;;;;;;19.68;57.25;101612.56;1823492;79;20244;-73
2021/08/24 01:10:00;;;;;;;;;;;;;;;19.63;57.25;101616.25;1855768;77;20256;-73
2021/08/24 01:13:00;;;;;;;;;;;;;;;19.64;57.34;101620.75;1870618;77;20531;-73
2021/08/24 01:15:48;;;;;;;;;;;;;;;19.64;57.47;101616.52;1879546;76;20188;-73
2021/08/24 01:18:43;;;;;;;;;;;;;;;19.64;57.71;101622.75;1825728;78;20545;-76
2021/08/24 01:21:37;;;;;;;;;;;;;;;19.62;57.69;101613.75;1881167;76;20626;-74
2021/08/24 01:24:26;;;;;;;;;;;;;;;19.64;57.80;101615.70;1878268;76;20956;-74
2021/08/24 01:27:10;;;;;;;;;;;;;;;19.66;57.84;101610.59;1850069;77;20547;-74
2021/08/24 01:30:05;;;;;;;;;;;;;;;19.65;57.85;101620.19;1861865;76;20646;-77
2021/08/24 01:32:56;;;;;;;;;;;;;;;19.64;57.99;101617.11;1885566;76;20645;-77
2021/08/24 01:36:07;;;;;;;;;;;;;;;19.62;57.70;101616.58;1836981;74;20240;-74
2021/08/24 01:38:49;;;;;;;;;;;;;;;19.62;57.90;101618.81;1828386;78;20269;-72
2021/08/24 01:41:48;;;;;;;;;;;;;;;19.64;57.92;101623.56;1832536;78;20329;-72
2021/08/24 01:44:22;;;;;;;;;;;;;;;19.66;57.90;101619.05;1784509;78;20171;-71
2021/08/24 01:47:11;;;;;;;;;;;;;;;19.65;57.71;101621.05;1843684;78;20615;-72
2021/08/24 01:49:50;;;;;;;;;;;;;;;19.64;57.74;101625.56;1842989;77;20183;-71
2021/08/24 01:52:23;;;;;;;;;;;;;;;19.65;57.68;101623.01;1841850;78;20278;-70
2021/08/24 01:55:00;;;;;;;;;;;;;;;19.62;57.59;101625.03;1841826;78;20242;-70
2021/08/24 01:57:35;;;;;;;;;;;;;;;19.58;57.79;101620.53;1841783;78;20540;-72
2021/08/24 02:00:09;;;;;;;;;;;;;;;19.56;58.00;101618.59;1837812;78;20547;-71
2021/08/24 02:02:46;;;;;;;;;;;;;;;19.53;57.83;101619.75;1843097;78;20643;-73
2021/08/24 02:05:24;;;;;;;;;;;;;;;19.53;57.87;101616.94;1843706;78;20171;-76
2021/08/24 02:08:00;;;;;;;;;;;;;;;19.50;57.93;101621.19;1843524;77;20210;-74
2021/08/24 02:10:32;;;;;;;;;;;;;;;19.50;57.95;101623.18;1843539;78;20282;-74
2021/08/24 02:13:03;;;;;;;;;;;;;;;19.51;58.10;101614.99;1811786;78;20179;-76
2021/08/24 02:15:41;;;;;;;;;;;;;;;19.49;58.14;101611.61;1841200;78;20289;-71
2021/08/24 02:18:15;;;;;;;;;;;;;;;19.46;58.24;101610.81;1832121;74;20247;-71
2021/08/24 02:20:50;;;;;;;;;;;;;;;19.45;58.20;101611.95;1740079;82;20186;-77
2021/08/24 02:23:24;;;;;;;;;;;;;;;19.43;58.31;101612.24;1741960;81;20270;-75
2021/08/24 02:25:57;;;;;;;;;;;;;;;19.39;58.37;101606.09;1741774;82;20602;-76
2021/08/24 02:28:34;;;;;;;;;;;;;;;19.40;58.38;101604.40;1743018;82;20222;-74
2021/08/24 02:31:11;;;;;;;;;;;;;;;19.40;58.45;101599.32;1743036;81;20277;-77
2021/08/24 02:33:56;;;;;;;;;;;;;;;19.40;58.25;101601.58;1742713;81;20322;-78
2021/08/24 02:36:28;;;;;;;;;;;;;;;19.41;58.47;101603.81;1743619;82;20253;-74
2021/08/24 02:39:08;;;;;;;;;;;;;;;19.39;57.93;101592.83;1723101;82;20625;-76
2021/08/24 02:41:50;;;;;;;;;;;;;;;19.38;57.67;101596.80;1715805;82;20260;-77
2021/08/24 02:44:26;;;;;;;;;;;;;;;19.38;57.13;101600.20;1713370;82;20259;-77
2021/08/24 02:46:58;;;;;;;;;;;;;;;19.41;57.12;101599.59;1701003;84;20634;-74
2021/08/24 02:49:31;;;;;;;;;;;;;;;19.42;57.32;101600.70;1714799;83;20188;-72
2021/08/24 02:52:05;;;;;;;;;;;;;;;19.43;57.35;101602.38;1708126;83;20194;-71
2021/08/24 02:54:39;;;;;;;;;;;;;;;19.45;57.49;101604.91;1686758;85;20258;-71
2021/08/24 02:57:11;;;;;;;;;;;;;;;19.44;57.56;101599.83;1727978;83;20254;-70
2021/08/24 02:59:42;;;;;;;;;;;;;;;19.45;57.70;101601.50;1726497;82;20210;-73
2021/08/24 03:02:14;;;;;;;;;;;;;;;19.48;57.68;101600.08;1726422;83;20257;-72
2021/08/24 03:04:46;;;;;;;;;;;;;;;19.48;57.82;101595.30;1800431;76;20278;-71
2021/08/24 03:07:25;;;;;;;;;;;;;;;19.45;58.33;101593.64;1788847;79;20226;-73
2021/08/24 03:09:58;;;;;;;;;;;;;;;19.43;58.46;101593.08;1811517;79;20185;-72
2021/08/24 03:12:57;;;;;;;;;;;;;;;19.41;58.17;101591.14;1811492;79;20192;-74
2021/08/24 03:15:34;;;;;;;;;;;;;;;19.41;57.80;101586.91;1741659;81;20178;-71
2021/08/24 03:18:33;;;;;;;;;;;;;;;19.41;57.49;101593.95;1815034;77;20364;-73
2021/08/24 03:21:07;;;;;;;;;;;;;;;19.41;57.89;101586.36;1811809;78;20246;-72
2021/08/24 03:23:39;;;;;;;;;;;;;;;19.41;58.25;101589.72;1827309;78;20232;-73
2021/08/24 03:26:12;;;;;;;;;;;;;;;19.40;58.46;101592.28;1815059;77;20170;-73
2021/08/24 03:28:44;;;;;;;;;;;;;;;19.39;58.72;101585.78;1825933;78;20258;-74
2021/08/24 03:31:16;;;;;;;;;;;;;;;19.35;58.99;101587.54;1823386;77;20189;-76
2021/08/24 03:33:49;;;;;;;;;;;;;;;19.35;59.07;101589.50;1818124;75;20245;-75
2021/08/24 03:36:20;;;;;;;;;;;;;;;19.38;59.08;101595.38;1852149;77;20532;-74
2021/08/24 03:38:52;;;;;;;;;;;;;;;19.42;59.14;101589.99;1851071;77;20543;-69
2021/08/24 03:41:24;;;;;;;;;;;;;;;19.45;59.07;101590.23;1817915;79;20257;-74
2021/08/24 03:43:56;;;;;;;;;;;;;;;19.45;59.19;101590.23;1853412;77;20584;-74
2021/08/24 03:46:28;;;;;;;;;;;;;;;19.50;59.12;101606.27;1818035;79;20193;-74
2021/08/24 03:49:00;;;;;;;;;;;;;;;19.50;59.18;101604.28;1852980;77;20242;-72
2021/08/24 03:51:32;;;;;;;;;;;;;;;19.57;59.30;101610.98;1785978;80;20290;-73
2021/08/24 03:54:03;;;;;;;;;;;;;;;19.59;58.81;101605.33;1823155;79;20249;-72
2021/08/24 03:56:35;;;;;;;;;;;;;;;19.59;58.70;101601.09;1791164;79;20208;-72
2021/08/24 03:59:06;;;;;;;;;;;;;;;19.64;58.58;101605.83;1820653;79;20249;-74
2021/08/24 04:01:39;;;;;;;;;;;;;;;19.69;58.47;101608.60;1785900;80;20192;-72
2021/08/24 04:04:11;;;;;;;;;;;;;;;19.72;58.14;101606.58;1819763;79;20304;-72
2021/08/24 04:06:43;;;;;;;;;;;;;;;19.73;57.97;101595.57;1794159;79;20193;-71
2021/08/24 04:09:15;;;;;;;;;;;;;;;19.77;57.80;101599.48;1851284;77;20278;-72
2021/08/24 04:11:48;;;;;;;;;;;;;;;19.79;57.77;101595.78;1817773;79;20253;-71
2021/08/24 04:14:20;;;;;;;;;;;;;;;19.86;57.80;101597.11;1852781;76;20353;-71
2021/08/24 04:16:52;;;;;;;;;;;;;;;19.92;57.91;101592.23;1817762;79;20296;-71
2021/08/24 04:19:24;;;;;;;;;;;;;;;20.02;57.93;101592.13;1852131;77;20309;-71
2021/08/24 04:21:56;;;;;;;;;;;;;;;20.07;57.88;101592.09;1802796;79;20614;-74
2021/08/24 04:24:28;;;;;;;;;;;;;;;20.13;57.97;101585.25;1850988;77;20186;-72
2021/08/24 04:26:59;;;;;;;;;;;;;;;20.23;58.13;101586.54;1851126;77;20182;-71
2021/08/24 04:29:31;;;;;;;;;;;;;;;20.33;58.27;101587.79;1816152;79;20272;-72
2021/08/24 04:32:16;;;;;;;;;;;;;;;20.39;58.59;101587.98;1851299;77;20305;-72
2021/08/24 04:34:47;;;;;;;;;;;;;;;20.50;58.58;101593.77;1819465;79;20249;-70
2021/08/24 04:37:20;;;;;;;;;;;;;;;20.64;58.48;101585.64;1819641;79;20219;-77
2021/08/24 04:39:51;;;;;;;;;;;;;;;20.88;58.36;101579.36;1782008;80;20208;-76
2021/08/24 04:42:23;;;;;;;;;;;;;;;21.21;57.98;101588.70;1784521;79;20529;-73
2021/08/24 04:44:56;;;;;;;;;;;;;;;21.65;57.54;101589.82;1758550;82;20251;-74
2021/08/24 04:47:28;;;;;;;;;;;;;;;22.15;56.87;101593.09;1783463;80;20220;-75
2021/08/24 04:49:59;;;;;;;;;;;;;;;22.65;56.15;101590.56;1783487;80;20297;-74
2021/08/24 04:52:31;;;;;;;;;;;;;;;23.18;55.25;101596.37;1786509;79;20256;-75
2021/08/24 04:55:03;;;;;;;;;;;;;;;23.58;53.91;101589.64;1759460;82;20251;-78
2021/08/24 04:57:35;;;;;;;;;;;;;;;23.99;53.41;101600.11;1771616;80;20185;-79
2021/08/24 05:00:07;;;;;;;;;;;;;;;24.36;52.90;101599.00;1788016;80;20245;-77
2021/08/24 05:02:40;;;;;;;;;;;;;;;24.77;51.48;101595.18;1788784;80;20191;-78
2021/08/24 05:05:11;;;;;;;;;;;;;;;25.14;51.00;101596.50;1788287;80;20181;-78
2021/08/24 05:07:43;;;;;;;;;;;;;;;25.53;50.37;101594.30;1803451;75;20612;-72
2021/08/24 05:10:15;;;;;;;;;;;;;;;25.88;49.31;101584.48;1829433;77;20245;-72
2021/08/24 05:12:46;;;;;;;;;;;;;;;26.12;48.72;101588.16;1815554;78;20176;-73
2021/08/24 05:15:17;;;;;;;;;;;;;;;26.40;47.63;101584.47;1813279;79;20540;-72
2021/08/24 05:17:50;;;;;;;;;;;;;;;26.65;47.53;101584.10;1817824;78;20176;-73
2021/08/24 05:20:22;;;;;;;;;;;;;;;26.89;46.33;101589.34;1787797;78;20250;-74
2021/08/24 05:22:54;;;;;;;;;;;;;;;27.15;45.78;101592.83;1802779;78;20249;-74
2021/08/24 05:25:29;;;;;;;;;;;;;;;27.36;45.48;101589.98;1787051;79;20364;-73
2021/08/24 05:28:01;;;;;;;;;;;;;;;27.55;44.67;101586.81;1766746;79;20359;-73
2021/08/24 05:30:35;;;;;;;;;;;;;;;27.67;44.17;101584.84;1773232;79;20295;-74
2021/08/24 05:33:06;;;;;;;;;;;;;;;27.75;43.73;101581.03;1793364;79;20228;-75
2021/08/24 05:35:38;;;;;;;;;;;;;;;27.84;43.83;101588.11;1765647;80;20268;-73
2021/08/24 05:38:09;;;;;;;;;;;;;;;27.93;43.77;101588.82;1807753;77;20184;-75
2021/08/24 05:40:41;;;;;;;;;;;;;;;28.05;43.72;101589.68;1823204;78;20223;-74
2021/08/24 05:43:13;;;;;;;;;;;;;;;28.09;43.07;101588.38;1821014;78;20287;-73
2021/08/24 05:45:44;;;;;;;;;;;;;;;28.12;43.62;101591.34;1825992;77;20216;-75
2021/08/24 05:48:16;;;;;;;;;;;;;;;28.16;43.59;101585.17;1801835;79;20535;-71
2021/08/24 05:50:47;;;;;;;;;;;;;;;28.22;43.63;101584.33;1795486;79;20224;-74
2021/08/24 05:53:20;;;;;;;;;;;;;;;28.25;42.98;101588.73;1782991;80;20286;-72
2021/08/24 05:55:51;;;;;;;;;;;;;;;28.18;43.22;101583.39;1793655;79;20602;-75
2021/08/24 05:58:23;;;;;;;;;;;;;;;28.26;43.81;101590.39;1789337;80;20174;-73
2021/08/24 06:00:55;;;;;;;;;;;;;;;28.40;43.15;101585.78;1798082;79;20248;-84
2021/08/24 06:03:26;;;;;;;;;;;;;;;28.42;42.80;101589.14;1793501;80;20274;-74
2021/08/24 06:05:58;;;;;;;;;;;;;;;28.44;42.96;101587.55;1792469;79;20365;-74
2021/08/24 06:08:30;;;;;;;;;;;;;;;28.50;42.90;101587.55;1792915;79;20278;-75
2021/08/24 06:11:01;;;;;;;;;;;;;;;28.68;42.95;101587.53;1789402;79;20333;-74
2021/08/24 06:13:33;;;;;;;;;;;;;;;28.75;43.36;101589.80;1788631;80;20201;-74
2021/08/24 06:16:05;;;;;;;;;;;;;;;28.92;43.67;101600.34;1814252;78;20186;-72
2021/08/24 06:18:37;;;;;;;;;;;;;;;28.97;42.72;101590.12;1813277;78;20210;-72
2021/08/24 06:21:08;;;;;;;;;;;;;;;29.00;42.56;101587.98;1813863;78;20352;-72
2021/08/24 06:23:41;;;;;;;;;;;;;;;29.08;41.83;101588.42;1811342;78;20194;-75
2021/08/24 06:26:13;;;;;;;;;;;;;;;29.09;42.62;101582.11;1811299;78;20244;-72
2021/08/24 06:28:46;;;;;;;;;;;;;;;29.12;41.96;101589.37;1812990;78;20247;-75
2021/08/24 06:31:24;;;;;;;;;;;;;;;29.20;42.19;101585.51;1819775;78;20370;-73
2021/08/24 06:33:54;;;;;;;;;;;;;;;29.23;41.82;101586.81;1803937;78;20190;-70
2021/08/24 06:36:25;;;;;;;;;;;;;;;29.28;42.43;101583.08;1830443;78;20276;-74
2021/08/24 06:38:59;;;;;;;;;;;;;;;29.49;41.90;101586.57;1860575;76;20248;-75
2021/08/24 06:41:30;;;;;;;;;;;;;;;29.65;42.28;101582.34;1859853;76;20315;-72
2021/08/24 06:44:03;;;;;;;;;;;;;;;29.81;41.07;101588.31;1837757;78;20286;-72
2021/08/24 06:46:36;;;;;;;;;;;;;;;29.91;40.72;101578.34;1844959;76;20622;-72
2021/08/24 06:49:08;;;;;;;;;;;;;;;29.88;40.39;101574.77;1807204;78;20288;-71
2021/08/24 06:51:39;;;;;;;;;;;;;;;29.90;40.28;101581.79;1813115;77;20542;-73
2021/08/24 06:54:11;;;;;;;;;;;;;;;29.96;40.64;101574.58;1813919;78;20177;-74
2021/08/24 06:56:42;;;;;;;;;;;;;;;30.11;40.20;101580.97;1846978;76;20562;-72
2021/08/24 06:59:15;;;;;;;;;;;;;;;30.12;40.23;101586.08;1845694;76;20276;-73
2021/08/24 07:01:47;;;;;;;;;;;;;;;30.10;40.55;101578.46;1812331;78;20261;-72
2021/08/24 07:04:19;;;;;;;;;;;;;;;30.11;40.19;101582.98;1802519;78;20276;-72
2021/08/24 07:06:51;;;;;;;;;;;;;;;29.94;40.94;101589.89;1803838;78;20253;-73
2021/08/24 07:09:22;;;;;;;;;;;;;;;29.93;40.89;101592.53;1853369;76;20693;-71
2021/08/24 07:11:54;;;;;;;;;;;;;;;29.99;41.40;101598.22;1845234;77;20242;-74
2021/08/24 07:14:25;;;;;;;;;;;;;;;30.14;41.35;101602.33;1851939;76;20210;-75
2021/08/24 07:16:58;;;;;;;;;;;;;;;30.32;40.96;101597.27;1855815;76;20259;-71
2021/08/24 07:19:30;;;;;;;;;;;;;;;30.47;40.19;101600.73;1858197;76;20276;-72
2021/08/24 07:22:03;;;;;;;;;;;;;;;30.60;39.72;101602.27;1853001;76;20797;-74
2021/08/24 07:24:36;;;;;;;;;;;;;;;30.72;40.00;101605.05;1852410;76;20374;-72
2021/08/24 07:27:07;;;;;;;;;;;;;;;30.72;40.02;101605.65;1853747;76;20588;-72
2021/08/24 07:29:39;;;;;;;;;;;;;;;30.76;39.85;101606.57;1842116;76;20530;-73
2021/08/24 07:32:11;;;;;;;;;;;;;;;30.66;39.41;101602.25;1853648;76;20305;-75
2021/08/24 07:34:43;;;;;;;;;;;;;;;30.41;40.00;101606.52;1853738;76;20247;-72
2021/08/24 07:37:15;;;;;;;;;;;;;;;30.21;40.38;101601.89;1825432;77;20262;-73
2021/08/24 07:39:48;;;;;;;;;;;;;;;29.90;39.80;101606.15;1856414;76;20618;-78
2021/08/24 07:42:19;;;;;;;;;;;;;;;29.36;41.38;101612.17;1812658;79;20534;-74
2021/08/24 07:44:51;;;;;;;;;;;;;;;29.05;42.53;101608.34;1815020;79;20303;-74
2021/08/24 07:47:25;;;;;;;;;;;;;;;28.96;43.17;101604.19;1817021;79;20514;-76
2021/08/24 07:49:57;;;;;;;;;;;;;;;28.91;42.94;101600.73;1813892;79;20542;-77
2021/08/24 07:52:29;;;;;;;;;;;;;;;28.74;43.44;101600.39;1817872;78;20525;-75
2021/08/24 07:55:02;;;;;;;;;;;;;;;28.65;43.88;101606.86;1812621;79;20216;-76
2021/08/24 07:57:34;;;;;;;;;;;;;;;28.59;43.72;101606.86;1816575;79;20212;-77
2021/08/24 08:00:06;;;;;;;;;;;;;;;28.56;43.80;101605.31;1818261;78;20222;-75
2021/08/24 08:02:40;;;;;;;;;;;;;;;28.43;43.07;101601.62;1844003;76;20624;-81
2021/08/24 08:05:11;;;;;;;;;;;;;;;28.34;44.11;101605.18;1805703;79;20371;-77
2021/08/24 08:07:45;;;;;;;;;;;;;;;28.25;43.51;101605.06;1849930;76;20188;-71
2021/08/24 08:10:16;;;;;;;;;;;;;;;28.15;44.01;101598.38;1849060;77;20253;-75
2021/08/24 08:12:48;;;;;;;;;;;;;;;28.17;44.45;101603.98;1843570;77;20551;-75
2021/08/24 08:15:23;;;;;;;;;;;;;;;28.18;42.51;101604.22;1804282;78;20275;-75
2021/08/24 08:17:56;;;;;;;;;;;;;;;28.14;42.95;101610.42;1830295;78;20572;-73
2021/08/24 08:20:27;;;;;;;;;;;;;;;28.08;41.85;101599.57;1803600;79;20177;-73
2021/08/24 08:23:02;;;;;;;;;;;;;;;27.99;41.68;101607.40;1831618;77;20235;-73
2021/08/24 08:25:35;;;;;;;;;;;;;;;27.84;41.85;101596.09;1815060;79;20258;-71
2021/08/24 08:28:07;;;;;;;;;;;;;;;27.74;42.71;101598.52;1813146;79;20183;-74
2021/08/24 08:30:44;;;;;;;;;;;;;;;27.76;42.82;101596.98;1845073;77;20315;-69
2021/08/24 08:33:16;;;;;;;;;;;;;;;27.80;42.89;101596.55;1850725;77;20178;-69
2021/08/24 08:35:48;;;;;;;;;;;;;;;27.85;42.97;101590.63;1843934;77;20210;-69
2021/08/24 08:38:19;;;;;;;;;;;;;;;27.92;43.36;101590.86;1840839;77;20328;-68
2021/08/24 08:41:05;;;;;;;;;;;;;;;27.91;43.18;101592.64;1821040;76;20297;-74
2021/08/24 08:43:53;;;;;;;;;;;;;;;27.90;42.80;101586.11;1790880;80;20266;-69
2021/08/24 08:46:34;;;;;;;;;;;;;;;27.91;42.67;101581.21;1795764;78;20253;-68
2021/08/24 08:49:14;;;;;;;;;;;;;;;27.88;42.13;101582.75;1757144;80;20323;-69
2021/08/24 08:51:50;;;;;;;;;;;;;;;27.89;42.52;101583.60;1773616;79;20189;-70
2021/08/24 08:54:34;;;;;;;;;;;;;;;27.84;42.59;101576.69;1787699;79;20190;-68
2021/08/24 08:57:18;;;;;;;;;;;;;;;27.77;42.06;101585.01;1780175;80;20195;-70
2021/08/24 08:59:54;;;;;;;;;;;;;;;27.68;41.36;101577.94;1782347;80;20695;-72
2021/08/24 09:02:49;;;;;;;;;;;;;;;27.57;41.44;101583.84;1777381;79;20226;-68
2021/08/24 09:05:22;;;;;;;;;;;;;;;27.46;41.55;101584.05;1778263;79;20215;-72
2021/08/24 09:07:56;;;;;;;;;;;;;;;27.45;41.93;101585.23;1784041;80;20213;-73
2021/08/24 09:10:48;;;;;;;;;;;;;;;27.52;41.87;101576.11;1780244;80;20294;-71
2021/08/24 09:13:26;;;;;;;;;;;;;;;27.58;41.52;101578.98;1779896;80;20216;-72
2021/08/24 09:16:10;;;;;;;;;;;;;;;27.61;40.56;101578.27;1780506;80;20270;-73
2021/08/24 09:18:59;;;;;;;;;;;;;;;27.58;40.92;101578.98;1780897;80;20218;-71
2021/08/24 09:21:39;;;;;;;;;;;;;;;27.67;40.99;101576.85;1780453;80;20175;-71
2021/08/24 09:24:20;;;;;;;;;;;;;;;27.68;40.03;101573.66;1779591;80;20536;-74
2021/08/24 09:27:00;;;;;;;;;;;;;;;27.63;40.80;101585.30;1780057;80;20230;-72
2021/08/24 09:29:47;;;;;;;;;;;;;;;27.61;39.47;101570.55;1779565;80;20179;-73
2021/08/24 09:32:21;;;;;;;;;;;;;;;27.50;39.63;101570.75;1780978;80;20230;-71
2021/08/24 09:34:55;;;;;;;;;;;;;;;27.46;40.06;101572.63;1779606;79;20183;-73
2021/08/24 09:37:27;;;;;;;;;;;;;;;27.49;40.07;101578.23;1780183;79;20227;-73
2021/08/24 09:40:02;;;;;;;;;;;;;;;27.48;40.00;101577.42;1778553;79;20624;-77
2021/08/24 09:42:48;;;;;;;;;;;;;;;27.45;39.95;101562.41;1763850;80;20198;-72
2021/08/24 09:45:27;;;;;;;;;;;;;;;27.45;40.18;101570.97;1764550;79;20587;-75
2021/08/24 09:48:02;;;;;;;;;;;;;;;27.48;40.85;101573.71;1794391;78;20210;-72
2021/08/24 09:50:36;;;;;;;;;;;;;;;27.52;40.65;101578.97;1790233;78;20265;-71
2021/08/24 09:53:08;;;;;;;;;;;;;;;27.51;39.45;101569.55;1815648;78;20222;-70
2021/08/24 09:55:48;;;;;;;;;;;;;;;27.51;39.74;101570.98;1805023;78;20171;-78
2021/08/24 09:58:39;;;;;;;;;;;;;;;27.53;39.82;101567.17;1817658;78;20598;-72
2021/08/24 10:01:15;;;;;;;;;;;;;;;27.51;39.75;101562.42;1825108;78;20233;-75
2021/08/24 10:03:49;;;;;;;;;;;;;;;27.51;39.03;101555.90;1790175;78;20259;-76
2021/08/24 10:06:32;;;;;;;;;;;;;;;27.54;39.14;101560.88;1813808;77;20574;-74
2021/08/24 10:09:35;;;;;;;;;;;;;;;27.58;39.25;101564.09;1823901;78;20227;-75
2021/08/24 10:12:22;;;;;;;;;;;;;;;27.59;38.81;101568.62;1808310;78;20292;-75
2021/08/24 10:14:56;;;;;;;;;;;;;;;27.55;39.03;101562.55;1823206;78;20270;-71
2021/08/24 10:17:30;;;;;;;;;;;;;;;27.57;39.23;101563.86;1807808;77;20180;-75
2021/08/24 10:20:21;;;;;;;;;;;;;;;27.57;38.79;101561.01;1801108;78;20244;-73
2021/08/24 10:22:52;;;;;;;;;;;;;;;27.53;39.53;101558.61;1816241;77;20296;-75
2021/08/24 10:25:31;;;;;;;;;;;;;;;27.60;39.28;101556.61;1810918;78;20388;-70
2021/08/24 10:28:14;;;;;;;;;;;;;;;27.65;39.32;101551.50;1814183;78;20663;-72
2021/08/24 10:30:48;;;;;;;;;;;;;;;27.67;38.51;101561.14;1807088;78;21020;-73
2021/08/24 10:33:29;;;;;;;;;;;;;;;27.60;39.17;101557.46;1817003;78;20291;-75
2021/08/24 10:36:05;;;;;;;;;;;;;;;27.62;39.04;101554.23;1822968;77;20294;-73
2021/08/24 10:38:42;;;;;;;;;;;;;;;27.58;38.17;101551.25;1817925;78;20624;-71
2021/08/24 10:41:25;;;;;;;;;;;;;;;27.50;38.49;101542.20;1811982;77;20271;-74
2021/08/24 10:44:02;;;;;;;;;;;;;;;27.47;39.46;101544.93;1780309;79;20188;-74
2021/08/24 10:46:35;;;;;;;;;;;;;;;27.50;38.89;101546.48;1799695;79;20232;-75
2021/08/24 10:49:10;;;;;;;;;;;;;;;27.51;38.71;101541.63;1776485;79;20237;-75
2021/08/24 10:51:45;;;;;;;;;;;;;;;27.44;38.31;101548.48;1796432;78;20336;-73
2021/08/24 10:54:28;;;;;;;;;;;;;;;27.42;38.55;101545.77;1777902;81;20294;-73
2021/08/24 10:57:06;;;;;;;;;;;;;;;27.40;38.70;101541.22;1801274;78;20317;-74
2021/08/24 10:59:49;;;;;;;;;;;;;;;27.38;37.99;101539.08;1796617;79;20196;-72
2021/08/24 11:02:29;;;;;;;;;;;;;;;27.34;38.28;101541.20;1796131;79;20241;-73
2021/08/24 11:05:17;;;;;;;;;;;;;;;27.30;39.94;101541.45;1797687;78;20219;-77
2021/08/24 11:08:04;;;;;;;;;;;;;;;27.30;39.90;101543.69;1796840;79;20408;-73
2021/08/24 11:10:54;;;;;;;;;;;;;;;27.30;38.95;101537.16;1803484;78;20277;-77
2021/08/24 11:13:40;;;;;;;;;;;;;;;27.33;38.29;101534.44;1800487;78;20196;-81
2021/08/24 11:16:38;;;;;;;;;;;;;;;27.33;38.24;101545.00;1796935;78;20213;-79
2021/08/24 11:19:29;;;;;;;;;;;;;;;27.28;38.54;101525.48;1807473;79;20183;-71
2021/08/24 11:22:07;;;;;;;;;;;;;;;27.25;39.49;101521.69;1803049;78;20169;-78
2021/08/24 11:24:47;;;;;;;;;;;;;;;27.28;39.30;101526.67;1790048;79;20552;-76
2021/08/24 11:27:59;;;;;;;;;;;;;;;27.36;38.40;101518.63;1805292;78;20221;-72
2021/08/24 11:30:41;;;;;;;;;;;;;;;27.40;38.64;101511.25;1844954;78;20644;-77
2021/08/24 11:33:29;;;;;;;;;;;;;;;27.46;38.45;101511.26;1808622;78;20216;-75
2021/08/24 11:36:05;;;;;;;;;;;;;;;27.52;37.97;101509.84;1787934;78;20289;-71
2021/08/24 11:38:39;;;;;;;;;;;;;;;27.54;38.46;101502.36;1806398;77;20189;-84
2021/08/24 11:41:16;;;;;;;;;;;;;;;27.56;37.87;101515.09;1813644;78;20266;-79
2021/08/24 11:44:02;;;;;;;;;;;;;;;27.55;37.15;101502.02;1800208;78;20269;-77
2021/08/24 11:46:57;;;;;;;;;;;;;;;27.54;37.65;101503.79;1808590;78;20273;-74
2021/08/24 11:49:37;;;;;;;;;;;;;;;27.46;39.25;101492.70;1806298;78;20233;-74
2021/08/24 11:52:24;;;;;;;;;;;;;;;27.44;38.75;101495.09;1790323;79;20628;-71
2021/08/24 11:55:05;;;;;;;;;;;;;;;27.43;37.98;101498.29;1803467;79;20681;-74
2021/08/24 11:58:07;;;;;;;;;;;;;;;27.42;37.89;101495.20;1803885;79;20213;-74
2021/08/24 12:00:39;;;;;;;;;;;;;;;27.43;38.06;101494.86;1801892;79;20249;-76
2021/08/24 12:03:13;;;;;;;;;;;;;;;27.46;38.08;101485.57;1795689;79;20281;-73
2021/08/24 12:05:49;;;;;;;;;;;;;;;27.48;37.48;101490.35;1799707;79;20609;-72
2021/08/24 12:08:23;;;;;;;;;;;;;;;27.45;37.62;101500.22;1803886;79;20316;-72
2021/08/24 12:10:58;;;;;;;;;;;;;;;27.38;38.03;101486.52;1800821;79;20652;-72
2021/08/24 12:13:47;;;;;;;;;;;;;;;27.33;38.08;101481.03;1795114;79;20288;-75
2021/08/24 12:16:30;;;;;;;;;;;;;;;27.32;38.22;101485.66;1806657;79;20293;-71
2021/08/24 12:19:20;;;;;;;;;;;;;;;27.28;38.15;101493.86;1805822;79;20591;-73
2021/08/24 12:21:57;;;;;;;;;;;;;;;27.27;38.20;101492.20;1787977;79;20810;-72
2021/08/24 12:24:32;;;;;;;;;;;;;;;27.27;38.36;101486.48;1800433;79;20268;-74
2021/08/24 12:27:10;;;;;;;;;;;;;;;27.27;38.61;101481.63;1801544;79;20186;-72
2021/08/24 12:29:48;;;;;;;;;;;;;;;27.28;38.63;101479.83;1799318;79;20182;-76
2021/08/24 12:32:26;;;;;;;;;;;;;;;27.31;38.82;101471.77;1803130;79;20267;-77
2021/08/24 12:35:17;;;;;;;;;;;;;;;27.34;38.80;101470.46;1802066;79;20348;-71
2021/08/24 12:37:58;;;;;;;;;;;;;;;27.37;38.98;101467.50;1803136;79;20598;-71
2021/08/24 12:40:49;;;;;;;;;;;;;;;27.39;38.99;101473.91;1798917;79;20249;-73
2021/08/24 12:43:45;;;;;;;;;;;;;;;27.44;39.10;101465.70;1800807;79;20256;-71
2021/08/24 12:46:25;;;;;;;;;;;;;;;27.44;39.03;101459.41;1803868;79;20317;-73
2021/08/24 12:49:24;;;;;;;;;;;;;;;27.46;39.30;101457.64;1803283;79;20292;-73
2021/08/24 12:52:10;;;;;;;;;;;;;;;27.48;39.44;101460.14;1800154;77;20326;-73
2021/08/24 12:54:51;;;;;;;;;;;;;;;27.50;39.06;101460.00;1801660;79;20260;-74
2021/08/24 12:57:26;;;;;;;;;;;;;;;27.50;38.70;101462.27;1806967;79;20182;-72
2021/08/24 13:00:18;;;;;;;;;;;;;;;27.50;38.88;101460.84;1802402;79;20310;-74
2021/08/24 13:03:14;;;;;;;;;;;;;;;27.48;38.85;101458.95;1803869;79;20586;-73
2021/08/24 13:05:48;;;;;;;;;;;;;;;27.48;39.32;101450.97;1805907;79;20320;-75
2021/08/24 13:08:25;;;;;;;;;;;;;;;27.48;39.16;101451.58;1803396;79;20235;-73
2021/08/24 13:11:00;;;;;;;;;;;;;;;27.47;39.32;101452.16;1804159;79;20303;-74
2021/08/24 13:13:37;;;;;;;;;;;;;;;27.48;39.68;101450.16;1731904;79;20580;-73
2021/08/24 13:16:15;;;;;;;;;;;;;;;27.47;39.06;101456.44;1803723;79;20240;-73
2021/08/24 13:18:49;;;;;;;;;;;;;;;27.48;38.30;101457.29;1800831;79;20169;-72
2021/08/24 13:21:42;;;;;;;;;;;;;;;27.43;38.80;101446.91;1795824;79;20253;-72
2021/08/24 13:24:35;;;;;;;;;;;;;;;27.43;38.84;101443.24;1805305;78;20227;-73